createdAt,value
2023-01-12T00:02:10.387Z,-8.91
2023-01-12T00:04:38.257Z,-8.89
2023-01-12T00:07:06.887Z,-8.94
2023-01-12T00:09:34.599Z,-8.99
2023-01-12T00:12:03.743Z,-8.96
2023-01-12T00:14:31.091Z,-8.98
2023-01-12T00:16:59.799Z,-8.99
2023-01-12T00:19:27.467Z,-8.99
2023-01-12T00:21:57.364Z,-9.01
2023-01-12T00:24:26.214Z,-9.00
2023-01-12T00:26:54.806Z,-9.03
2023-01-12T00:29:23.092Z,-9.04
2023-01-12T00:31:50.372Z,-8.96
2023-01-12T00:34:19.358Z,-9.01
2023-01-12T00:36:48.005Z,-9.02
2023-01-12T00:39:16.229Z,-9.03
2023-01-12T00:42:03.830Z,-9.01
2023-01-12T00:44:50.157Z,-9.05
2023-01-12T00:47:18.336Z,-8.95
2023-01-12T00:49:47.455Z,-9.07
2023-01-12T00:52:29.394Z,-9.02
2023-01-12T00:54:58.570Z,-9.10
2023-01-12T00:57:26.509Z,-9.03
2023-01-12T00:59:58.361Z,-9.09
2023-01-12T01:02:26.581Z,-9.09
2023-01-12T01:04:55.804Z,-9.11
2023-01-12T01:07:23.644Z,-9.06
2023-01-12T01:09:51.616Z,-9.09
2023-01-12T01:12:19.550Z,-9.07
2023-01-12T01:14:47.355Z,-8.99
2023-01-12T01:17:14.995Z,-8.96
2023-01-12T01:19:43.787Z,-8.87
2023-01-12T01:22:13.262Z,-8.98
2023-01-12T01:24:41.727Z,-8.97
2023-01-12T01:27:09.026Z,-9.02
2023-01-12T01:29:36.782Z,-8.98
2023-01-12T01:32:04.294Z,-9.03
2023-01-12T01:34:50.086Z,-9.08
2023-01-12T01:37:20.200Z,-9.05
2023-01-12T01:39:47.464Z,-9.07
2023-01-12T01:42:28.450Z,-9.05
2023-01-12T01:44:58.854Z,-9.16
2023-01-12T01:47:35.254Z,-9.12
2023-01-12T01:50:07.767Z,-9.18
2023-01-12T01:52:40.002Z,-9.06
2023-01-12T01:55:11.374Z,-9.13
2023-01-12T01:57:46.825Z,-9.05
2023-01-12T02:00:15.101Z,-9.02
2023-01-12T02:02:46.512Z,-9.05
2023-01-12T02:05:16.318Z,-8.91
2023-01-12T02:07:45.178Z,-8.99
2023-01-12T02:10:12.644Z,-9.04
2023-01-12T02:12:59.331Z,-9.05
2023-01-12T02:15:47.492Z,-9.05
2023-01-12T02:18:22.205Z,-8.96
2023-01-12T02:21:01.601Z,-9.06
2023-01-12T02:24:17.365Z,-9.04
2023-01-12T02:27:23.510Z,-8.98
2023-01-12T02:30:24.255Z,-8.96
2023-01-12T02:33:02.962Z,-9.02
2023-01-12T02:35:36.952Z,-9.06
2023-01-12T02:38:15.465Z,-9.05
2023-01-12T02:40:49.052Z,-8.98
2023-01-12T02:43:21.774Z,-9.00
2023-01-12T02:45:55.158Z,-9.10
2023-01-12T02:48:29.039Z,-8.99
2023-01-12T02:51:01.615Z,-8.99
2023-01-12T02:53:33.279Z,-9.06
2023-01-12T02:56:04.042Z,-9.13
2023-01-12T02:58:35.868Z,-9.26
2023-01-12T03:01:04.815Z,-9.08
2023-01-12T03:03:35.257Z,-9.06
2023-01-12T03:06:02.598Z,-9.05
2023-01-12T03:08:32.542Z,-9.05
2023-01-12T03:11:21.958Z,-9.10
2023-01-12T03:13:51.320Z,-9.14
2023-01-12T03:16:21.821Z,-9.13
2023-01-12T03:18:54.631Z,-9.13
2023-01-12T03:21:28.650Z,-9.14
2023-01-12T03:24:00.927Z,-9.21
2023-01-12T03:26:31.313Z,-9.28
2023-01-12T03:29:04.177Z,-9.13
2023-01-12T03:31:32.738Z,-9.14
2023-01-12T03:34:02.076Z,-9.05
2023-01-12T03:36:40.869Z,-9.07
2023-01-12T03:39:16.855Z,-9.00
2023-01-12T03:41:55.021Z,-9.14
2023-01-12T03:44:30.956Z,-9.14
2023-01-12T03:47:02.191Z,-9.20
2023-01-12T03:49:35.118Z,-9.21
2023-01-12T03:52:06.088Z,-9.29
2023-01-12T03:54:37.616Z,-9.24
2023-01-12T03:57:06.660Z,-9.25
2023-01-12T03:59:35.287Z,-9.20
2023-01-12T04:02:03.452Z,-9.18
2023-01-12T04:04:32.388Z,-9.22
2023-01-12T04:07:01.747Z,-9.19
2023-01-12T04:09:29.339Z,-9.10
2023-01-12T04:12:11.641Z,-9.12
2023-01-12T04:14:39.851Z,-9.21
2023-01-12T04:17:08.441Z,-9.27
2023-01-12T04:19:37.259Z,-9.20
2023-01-12T04:22:23.326Z,-9.20
2023-01-12T04:24:50.567Z,-9.18
2023-01-12T04:27:18.485Z,-9.18
2023-01-12T04:29:45.843Z,-9.12
2023-01-12T04:32:13.251Z,-9.11
2023-01-12T04:34:41.911Z,-9.10
2023-01-12T04:37:09.322Z,-9.14
2023-01-12T04:39:36.588Z,-9.12
2023-01-12T04:42:04.876Z,-9.08
2023-01-12T04:44:32.543Z,-9.16
2023-01-12T04:46:59.756Z,-9.28
2023-01-12T04:49:27.268Z,-9.24
2023-01-12T04:51:55.875Z,-9.29
2023-01-12T04:54:23.239Z,-9.25
2023-01-12T04:56:50.760Z,-9.25
2023-01-12T04:59:18.413Z,-9.26
2023-01-12T05:01:45.864Z,-9.27
2023-01-12T05:04:15.117Z,-9.23
2023-01-12T05:06:42.418Z,-9.24
2023-01-12T05:09:30.086Z,-9.24
2023-01-12T05:11:59.912Z,-9.24
2023-01-12T05:14:27.428Z,-9.26
2023-01-12T05:16:55.032Z,-9.12
2023-01-12T05:19:22.310Z,-9.20
2023-01-12T05:21:49.539Z,-9.23
2023-01-12T05:24:18.808Z,-9.23
2023-01-12T05:26:46.168Z,-9.26
2023-01-12T05:29:13.634Z,-9.19
2023-01-12T05:31:40.967Z,-9.28
2023-01-12T05:34:08.311Z,-9.34
2023-01-12T05:36:35.576Z,-9.35
2023-01-12T05:39:04.959Z,-9.38
2023-01-12T05:41:33.972Z,-9.41
2023-01-12T05:44:01.343Z,-9.43
2023-01-12T05:46:31.092Z,-9.49
2023-01-12T05:48:59.151Z,-9.33
2023-01-12T05:51:27.360Z,-9.21
2023-01-12T05:53:55.263Z,-9.49
2023-01-12T05:56:25.978Z,-9.61
2023-01-12T05:58:56.085Z,-9.63
2023-01-12T06:01:23.905Z,-9.68
2023-01-12T06:03:52.536Z,-9.64
2023-01-12T06:06:21.614Z,-9.64
2023-01-12T06:08:52.173Z,-9.70
2023-01-12T06:11:38.509Z,-9.74
2023-01-12T06:14:08.599Z,-9.70
2023-01-12T06:16:38.502Z,-9.81
2023-01-12T06:19:06.095Z,-9.80
2023-01-12T06:21:34.152Z,-9.78
2023-01-12T06:24:01.876Z,-9.76
2023-01-12T06:26:29.468Z,-9.69
2023-01-12T06:28:57.161Z,-9.68
2023-01-12T06:31:25.841Z,-9.63
2023-01-12T06:33:53.249Z,-9.53
2023-01-12T06:36:20.501Z,-9.50
2023-01-12T06:38:47.859Z,-9.58
2023-01-12T06:41:34.012Z,-9.59
2023-01-12T06:44:01.558Z,-9.59
2023-01-12T06:46:30.788Z,-9.61
2023-01-12T06:48:59.334Z,-9.51
2023-01-12T06:51:27.602Z,-9.54
2023-01-12T06:53:55.315Z,-9.42
2023-01-12T06:56:23.366Z,-9.39
2023-01-12T06:58:50.733Z,-9.38
2023-01-12T07:01:18.696Z,-9.39
2023-01-12T07:03:47.785Z,-9.31
2023-01-12T07:06:15.213Z,-9.33
2023-01-12T07:08:43.537Z,-9.35
2023-01-12T07:11:15.222Z,-9.29
2023-01-12T07:13:42.713Z,-9.30
2023-01-12T07:16:10.160Z,-9.32
2023-01-12T07:18:37.463Z,-9.28
2023-01-12T07:21:07.327Z,-9.25
2023-01-12T07:23:35.090Z,-9.33
2023-01-12T07:26:02.597Z,-9.32
2023-01-12T07:28:31.605Z,-9.24
2023-01-12T07:31:00.916Z,-9.18
2023-01-12T07:33:28.305Z,-9.19
2023-01-12T07:35:58.828Z,-9.33
2023-01-12T07:38:28.702Z,-9.26
2023-01-12T07:40:59.144Z,-9.13
2023-01-12T07:43:26.822Z,-9.17
2023-01-12T07:45:56.275Z,-9.23
2023-01-12T07:48:25.187Z,-9.16
2023-01-12T07:50:52.712Z,-9.13
2023-01-12T07:53:20.427Z,-9.06
2023-01-12T07:55:49.037Z,-9.19
2023-01-12T07:58:19.273Z,-9.10
2023-01-12T08:00:46.488Z,-9.03
2023-01-12T08:03:16.995Z,-9.02
2023-01-12T08:05:44.585Z,-8.94
2023-01-12T08:08:11.986Z,-8.91
2023-01-12T08:10:39.538Z,-8.82
2023-01-12T08:13:08.390Z,-8.88
2023-01-12T08:15:38.687Z,-8.82
2023-01-12T08:18:12.557Z,-8.96
2023-01-12T08:20:40.656Z,-8.84
2023-01-12T08:23:11.697Z,-8.92
2023-01-12T08:25:44.954Z,-8.89
2023-01-12T08:28:17.864Z,-8.69
2023-01-12T08:30:47.642Z,-8.71
2023-01-12T08:33:16.159Z,-8.65
2023-01-12T08:35:46.501Z,-8.59
2023-01-12T08:38:14.001Z,-8.57
2023-01-12T08:40:59.745Z,-8.52
2023-01-12T08:43:47.599Z,-8.47
2023-01-12T08:46:15.231Z,-8.45
2023-01-12T08:48:42.744Z,-8.61
2023-01-12T08:51:10.064Z,-8.58
2023-01-12T08:53:37.509Z,-8.58
2023-01-12T08:56:05.469Z,-8.53
2023-01-12T08:58:34.153Z,-8.60
2023-01-12T09:01:08.806Z,-8.49
2023-01-12T09:03:36.458Z,-8.66
2023-01-12T09:06:11.543Z,-8.79
2023-01-12T09:08:39.200Z,-8.62
2023-01-12T09:11:07.039Z,-8.46
2023-01-12T09:13:35.975Z,-8.35
2023-01-12T09:16:12.161Z,-8.26
2023-01-12T09:18:40.977Z,-8.24
2023-01-12T09:21:10.199Z,-8.02
2023-01-12T09:23:38.340Z,-8.04
2023-01-12T09:26:06.888Z,-7.89
2023-01-12T09:28:36.794Z,-7.95
2023-01-12T09:31:06.789Z,-8.14
2023-01-12T09:33:34.867Z,-7.88
2023-01-12T09:36:03.884Z,-7.68
2023-01-12T09:38:34.895Z,-7.61
2023-01-12T09:41:08.652Z,-7.60
2023-01-12T09:43:56.492Z,-7.60
2023-01-12T09:47:01.729Z,-7.46
2023-01-12T09:49:33.457Z,-7.43
2023-01-12T09:52:10.381Z,-7.49
2023-01-12T09:54:37.774Z,-7.56
2023-01-12T09:57:28.778Z,-7.56
2023-01-12T10:00:03.497Z,-7.46
2023-01-12T10:02:45.611Z,-7.60
2023-01-12T10:05:20.489Z,-7.39
2023-01-12T10:07:50.353Z,-7.43
2023-01-12T10:10:17.875Z,-7.36
2023-01-12T10:12:52.319Z,-7.52
2023-01-12T10:15:31.376Z,-7.32
2023-01-12T10:18:04.183Z,-7.23
2023-01-12T10:20:37.526Z,-7.13
2023-01-12T10:23:11.583Z,-6.91
2023-01-12T10:25:42.267Z,-6.77
2023-01-12T10:28:17.261Z,-6.63
2023-01-12T10:30:46.395Z,-6.62
2023-01-12T10:33:18.932Z,-6.82
2023-01-12T10:35:56.105Z,-6.82
2023-01-12T10:38:29.864Z,-6.71
2023-01-12T10:41:17.345Z,-6.53
2023-01-12T10:44:03.679Z,-6.37
2023-01-12T10:46:33.897Z,-6.16
2023-01-12T10:49:16.682Z,-6.20
2023-01-12T10:51:55.148Z,-6.33
2023-01-12T10:54:25.887Z,-6.13
2023-01-12T10:56:57.547Z,-6.06
2023-01-12T10:59:29.465Z,-6.05
2023-01-12T11:02:14.094Z,-5.90
2023-01-12T11:04:43.968Z,-5.83
2023-01-12T11:07:14.120Z,-5.94
2023-01-12T11:09:42.909Z,-5.87
2023-01-12T11:12:23.744Z,-5.96
2023-01-12T11:15:03.189Z,-5.98
2023-01-12T11:17:49.921Z,-6.08
2023-01-12T11:20:23.650Z,-6.05
2023-01-12T11:22:54.787Z,-5.98
2023-01-12T11:25:24.634Z,-5.86
2023-01-12T11:27:58.766Z,-5.78
2023-01-12T11:30:33.223Z,-5.80
2023-01-12T11:33:10.619Z,-5.89
2023-01-12T11:35:41.919Z,-5.70
2023-01-12T11:38:16.130Z,-5.83
2023-01-12T11:40:44.392Z,-5.78
2023-01-12T11:43:44.461Z,-5.94
2023-01-12T11:46:21.237Z,-6.01
2023-01-12T11:48:59.502Z,-6.12
2023-01-12T11:51:27.658Z,-5.91
2023-01-12T11:53:55.516Z,-5.93
2023-01-12T11:56:51.002Z,-5.86
2023-01-12T11:59:24.696Z,-5.84
2023-01-12T12:02:01.863Z,-5.81
2023-01-12T12:04:51.487Z,-5.99
2023-01-12T12:07:34.888Z,-5.96
2023-01-12T12:10:18.783Z,-5.80
2023-01-12T12:13:06.820Z,-5.77
2023-01-12T12:15:46.097Z,-6.01
2023-01-12T12:18:24.648Z,-5.90
2023-01-12T12:21:08.566Z,-5.97
2023-01-12T12:23:44.319Z,-6.13
2023-01-12T12:26:19.011Z,-6.32
2023-01-12T12:28:59.907Z,-6.49
2023-01-12T12:31:48.971Z,-6.53
2023-01-12T12:34:57.606Z,-6.70
2023-01-12T12:37:39.430Z,-6.78
2023-01-12T12:40:20.764Z,-6.83
2023-01-12T12:43:18.080Z,-6.84
2023-01-12T12:45:55.320Z,-6.91
2023-01-12T12:48:30.519Z,-6.92
2023-01-12T12:51:02.894Z,-6.84
2023-01-12T12:53:35.799Z,-6.84
2023-01-12T12:56:06.035Z,-7.14
2023-01-12T12:58:42.169Z,-7.08
2023-01-12T13:01:38.539Z,-7.03
2023-01-12T13:04:10.752Z,-7.15
2023-01-12T13:06:40.838Z,-7.03
2023-01-12T13:09:41.179Z,-7.07
2023-01-12T13:12:32.639Z,-7.05
2023-01-12T13:15:22.559Z,-7.16
2023-01-12T13:17:52.927Z,-7.38
2023-01-12T13:21:01.442Z,-7.27
2023-01-12T13:23:46.865Z,-7.31
2023-01-12T13:26:43.555Z,-7.29
2023-01-12T13:29:49.026Z,-7.27
2023-01-12T13:32:49.742Z,-7.33
2023-01-12T13:35:50.461Z,-7.29
2023-01-12T13:38:28.673Z,-7.40
2023-01-12T13:41:04.745Z,-7.36
2023-01-12T13:43:38.906Z,-7.42
2023-01-12T13:46:14.587Z,-7.45
2023-01-12T13:48:45.809Z,-7.47
2023-01-12T13:51:17.225Z,-7.53
2023-01-12T13:53:44.604Z,-7.51
2023-01-12T13:56:20.035Z,-7.55
2023-01-12T13:58:58.257Z,-7.54
2023-01-12T14:01:28.685Z,-7.56
2023-01-12T14:04:21.751Z,-7.53
2023-01-12T14:06:59.281Z,-7.65
2023-01-12T14:09:39.585Z,-7.66
2023-01-12T14:12:38.441Z,-7.74
2023-01-12T14:15:39.688Z,-7.78
2023-01-12T14:18:12.023Z,-8.20
2023-01-12T14:20:46.256Z,-7.97
2023-01-12T14:23:20.007Z,-7.95
2023-01-12T14:26:03.346Z,-8.03
2023-01-12T14:28:31.714Z,-8.05
2023-01-12T14:31:01.156Z,-8.07
2023-01-12T14:33:31.928Z,-8.15
2023-01-12T14:36:04.622Z,-8.05
2023-01-12T14:38:35.276Z,-8.07
2023-01-12T14:41:05.947Z,-8.08
2023-01-12T14:43:59.050Z,-8.06
2023-01-12T14:46:30.772Z,-8.09
2023-01-12T14:49:01.200Z,-8.05
2023-01-12T14:51:35.321Z,-8.05
2023-01-12T14:54:17.648Z,-8.04
2023-01-12T14:56:50.518Z,-8.02
2023-01-12T14:59:23.565Z,-8.00
2023-01-12T15:02:07.495Z,-8.12
2023-01-12T15:04:35.133Z,-8.07
2023-01-12T15:07:04.802Z,-8.20
2023-01-12T15:09:34.187Z,-8.18
2023-01-12T15:12:33.609Z,-8.18
2023-01-12T15:15:14.966Z,-8.14
2023-01-12T15:18:02.548Z,-8.12
2023-01-12T15:20:52.281Z,-8.17
2023-01-12T15:23:47.601Z,-8.20
2023-01-12T15:26:14.952Z,-8.14
2023-01-12T15:28:42.417Z,-8.17
2023-01-12T15:31:19.360Z,-8.17
2023-01-12T15:33:48.484Z,-8.13
2023-01-12T15:36:16.112Z,-8.20
2023-01-12T15:38:43.718Z,-8.13
2023-01-12T15:41:16.834Z,-8.22
2023-01-12T15:43:44.355Z,-8.20
2023-01-12T15:46:17.899Z,-8.29
2023-01-12T15:48:45.467Z,-8.22
2023-01-12T15:51:16.059Z,-8.20
2023-01-12T15:53:43.581Z,-8.18
2023-01-12T15:56:15.438Z,-8.19
2023-01-12T15:58:42.712Z,-8.16
2023-01-12T16:01:15.384Z,-8.18
2023-01-12T16:04:07.244Z,-8.18
2023-01-12T16:06:32.607Z,-8.08
2023-01-12T16:09:01.138Z,-8.19
2023-01-12T16:11:28.478Z,-8.05
2023-01-12T16:13:56.006Z,-8.05
2023-01-12T16:16:25.178Z,-8.01
2023-01-12T16:18:52.770Z,-8.01
2023-01-12T16:21:23.280Z,-7.96
2023-01-12T16:23:52.292Z,-7.97
2023-01-12T16:26:19.525Z,-7.97
2023-01-12T16:28:47.134Z,-7.96
2023-01-12T16:31:15.295Z,-7.93
2023-01-12T16:33:44.083Z,-8.00
2023-01-12T16:36:13.190Z,-7.88
2023-01-12T16:38:40.970Z,-7.88
2023-01-12T16:41:11.679Z,-7.87
2023-01-12T16:43:39.230Z,-7.86
2023-01-12T16:46:07.108Z,-7.87
2023-01-12T16:48:35.364Z,-7.86
2023-01-12T16:51:02.700Z,-7.78
2023-01-12T16:53:29.971Z,-7.78
2023-01-12T16:56:02.680Z,-7.73
2023-01-12T16:58:31.621Z,-7.62
2023-01-12T17:01:00.535Z,-7.76
2023-01-12T17:03:28.355Z,-7.72
2023-01-12T17:05:58.515Z,-7.75
2023-01-12T17:08:26.190Z,-7.78
2023-01-12T17:10:53.494Z,-7.78
2023-01-12T17:13:20.982Z,-7.81
2023-01-12T17:15:52.365Z,-7.74
2023-01-12T17:18:19.876Z,-7.74
2023-01-12T17:20:47.437Z,-7.75
2023-01-12T17:23:14.906Z,-7.77
2023-01-12T17:25:42.186Z,-7.78
2023-01-12T17:28:09.482Z,-7.77
2023-01-12T17:30:39.566Z,-7.72
2023-01-12T17:33:08.319Z,-7.68
2023-01-12T17:35:36.096Z,-7.70
2023-01-12T17:38:03.819Z,-7.73
2023-01-12T17:40:31.903Z,-7.72
2023-01-12T17:43:08.273Z,-7.71
2023-01-12T17:45:41.979Z,-7.72
2023-01-12T17:48:18.189Z,-7.67
2023-01-12T17:50:46.183Z,-7.73
2023-01-12T17:53:14.653Z,-7.65
2023-01-12T17:55:48.595Z,-7.65
2023-01-12T17:58:18.705Z,-7.68
2023-01-12T18:00:46.257Z,-7.64
2023-01-12T18:03:15.024Z,-7.59
2023-01-12T18:05:44.594Z,-7.59
2023-01-12T18:08:12.508Z,-7.58
2023-01-12T18:11:01.554Z,-7.55
2023-01-12T18:13:29.022Z,-7.53
2023-01-12T18:16:00.443Z,-7.53
2023-01-12T18:18:32.097Z,-7.54
2023-01-12T18:21:06.589Z,-7.57
2023-01-12T18:23:34.693Z,-7.54
2023-01-12T18:26:03.076Z,-7.56
2023-01-12T18:28:30.549Z,-7.60
2023-01-12T18:31:02.520Z,-7.54
2023-01-12T18:33:31.197Z,-7.49
2023-01-12T18:35:58.719Z,-7.46
2023-01-12T18:38:28.918Z,-7.41
2023-01-12T18:41:14.700Z,-7.50
2023-01-12T18:43:44.112Z,-7.46
2023-01-12T18:46:12.522Z,-7.43
2023-01-12T18:48:43.588Z,-7.57
2023-01-12T18:51:29.579Z,-7.39
2023-01-12T18:53:57.131Z,-7.45
2023-01-12T18:56:24.994Z,-7.40
2023-01-12T18:58:53.057Z,-7.46
2023-01-12T19:01:22.488Z,-7.37
2023-01-12T19:03:53.084Z,-7.37
2023-01-12T19:06:21.680Z,-7.49
2023-01-12T19:09:08.096Z,-7.42
2023-01-12T19:11:35.785Z,-7.34
2023-01-12T19:14:22.543Z,-7.41
2023-01-12T19:17:08.126Z,-7.32
2023-01-12T19:19:37.297Z,-7.38
2023-01-12T19:22:23.338Z,-7.33
2023-01-12T19:25:09.481Z,-7.34
2023-01-12T19:27:55.499Z,-7.37
2023-01-12T19:30:22.829Z,-7.33
2023-01-12T19:32:50.099Z,-7.37
2023-01-12T19:35:19.149Z,-7.31
2023-01-12T19:37:47.370Z,-7.38
2023-01-12T19:40:27.532Z,-7.35
2023-01-12T19:43:14.472Z,-7.35
2023-01-12T19:45:43.130Z,-7.48
2023-01-12T19:48:11.393Z,-7.27
2023-01-12T19:50:41.117Z,-7.33
2023-01-12T19:53:11.652Z,-7.32
2023-01-12T19:55:41.478Z,-7.32
2023-01-12T19:58:09.490Z,-7.36
2023-01-12T20:00:37.856Z,-7.28
2023-01-12T20:03:05.354Z,-7.23
2023-01-12T20:05:32.859Z,-7.23
2023-01-12T20:08:01.654Z,-7.26
2023-01-12T20:10:29.137Z,-7.27
2023-01-12T20:12:57.480Z,-7.31
2023-01-12T20:15:24.898Z,-7.35
2023-01-12T20:17:52.401Z,-7.31
2023-01-12T20:20:20.308Z,-7.26
2023-01-12T20:22:49.921Z,-7.39
2023-01-12T20:25:18.880Z,-7.31
2023-01-12T20:27:48.336Z,-7.37
2023-01-12T20:30:18.172Z,-7.33
2023-01-12T20:32:48.649Z,-7.29
2023-01-12T20:35:19.030Z,-7.33
2023-01-12T20:37:46.380Z,-7.20
2023-01-12T20:40:15.108Z,-7.24
2023-01-12T20:42:45.226Z,-7.22
2023-01-12T20:45:14.083Z,-7.18
2023-01-12T20:47:41.836Z,-7.16
2023-01-12T20:50:13.763Z,-7.16
2023-01-12T20:52:41.525Z,-7.18
2023-01-12T20:55:09.149Z,-7.22
2023-01-12T20:57:39.019Z,-7.16
2023-01-12T21:00:09.620Z,-7.17
2023-01-12T21:02:37.323Z,-7.22
2023-01-12T21:05:05.436Z,-7.21
2023-01-12T21:07:32.766Z,-7.20
2023-01-12T21:10:00.666Z,-7.21
2023-01-12T21:12:30.864Z,-7.18
2023-01-12T21:14:58.092Z,-7.16
2023-01-12T21:17:27.053Z,-7.08
2023-01-12T21:19:54.487Z,-7.15
2023-01-12T21:22:21.826Z,-7.12
2023-01-12T21:24:50.529Z,-7.10
2023-01-12T21:27:20.033Z,-7.14
2023-01-12T21:29:54.949Z,-7.15
2023-01-12T21:32:29.821Z,-7.14
2023-01-12T21:34:59.761Z,-7.12
2023-01-12T21:37:27.069Z,-7.01
2023-01-12T21:39:56.503Z,-7.02
2023-01-12T21:42:42.604Z,-6.95
2023-01-12T21:45:10.372Z,-7.03
2023-01-12T21:47:37.634Z,-7.05
2023-01-12T21:50:06.888Z,-7.00
2023-01-12T21:52:34.729Z,-7.03
2023-01-12T21:55:02.151Z,-6.99
2023-01-12T21:57:30.829Z,-7.02
2023-01-12T21:59:58.041Z,-7.02
2023-01-12T22:02:25.684Z,-6.97
2023-01-12T22:04:52.901Z,-6.94
2023-01-12T22:07:21.645Z,-6.94
2023-01-12T22:09:48.851Z,-6.96
2023-01-12T22:12:16.162Z,-6.94
2023-01-12T22:14:43.549Z,-6.95
2023-01-12T22:17:10.845Z,-6.93
2023-01-12T22:19:39.490Z,-6.89
2023-01-12T22:22:07.071Z,-6.88
2023-01-12T22:24:35.805Z,-6.86
2023-01-12T22:27:03.571Z,-6.85
2023-01-12T22:29:30.757Z,-6.83
2023-01-12T22:31:58.257Z,-6.83
2023-01-12T22:34:26.068Z,-6.83
2023-01-12T22:36:53.219Z,-6.84
2023-01-12T22:39:20.526Z,-6.88
2023-01-12T22:41:50.830Z,-6.80
2023-01-12T22:44:19.188Z,-6.75
2023-01-12T22:46:46.640Z,-6.75
2023-01-12T22:49:13.956Z,-6.70
2023-01-12T22:51:41.335Z,-6.72
2023-01-12T22:54:08.966Z,-6.74
2023-01-12T22:56:36.871Z,-6.72
2023-01-12T22:59:05.532Z,-6.76
2023-01-12T23:01:33.703Z,-6.79
2023-01-12T23:04:01.158Z,-6.71
2023-01-12T23:06:28.644Z,-6.76
2023-01-12T23:08:56.120Z,-6.70
2023-01-12T23:11:25.884Z,-6.79
2023-01-12T23:13:55.071Z,-6.78
2023-01-12T23:16:24.745Z,-6.79
2023-01-12T23:18:53.052Z,-6.79
2023-01-12T23:21:22.607Z,-6.72
2023-01-12T23:23:52.126Z,-6.75
2023-01-12T23:26:20.938Z,-6.69
2023-01-12T23:28:50.371Z,-6.67
2023-01-12T23:31:19.176Z,-6.67
2023-01-12T23:33:48.607Z,-6.67
2023-01-12T23:36:18.831Z,-6.69
2023-01-12T23:38:46.345Z,-6.65
2023-01-12T23:41:15.462Z,-6.67
2023-01-12T23:43:43.425Z,-6.65
2023-01-12T23:46:11.502Z,-6.63
2023-01-12T23:48:41.164Z,-6.99
2023-01-12T23:51:10.350Z,-6.66
2023-01-12T23:53:40.519Z,-6.63
2023-01-12T23:56:10.511Z,-6.63
2023-01-12T23:58:38.404Z,-6.60
